Time;durP1;ratioP1;P1;durP2;ratioP2;P2;SDS_P1;SDS_P2;PMS_P1;PMS_P2;Temp;Humidity;BMP_temperature;BMP_pressure;BME280_temperature;BME280_humidity;BME280_pressure;Samples;Min_cycle;Max_cycle;Signal;HPM_P1;HPM_P2
2021/06/18 00:02:13;;;;;;;53.00;47.87;;;19.80;85.70;;;;;;5051438;28;20427;-81
2021/06/18 00:04:38;;;;;;;54.37;48.97;;;19.80;85.90;;;;;;5051520;28;20127;-81
2021/06/18 00:07:04;;;;;;;49.00;44.33;;;19.80;86.00;;;;;;5051590;28;20100;-80
2021/06/18 00:09:30;;;;;;;48.90;43.83;;;19.70;86.00;;;;;;5052092;28;20098;-81
2021/06/18 00:11:55;;;;;;;54.23;48.57;;;19.80;85.90;;;;;;5051379;28;20132;-81
2021/06/18 00:14:21;;;;;;;52.83;47.50;;;19.80;85.80;;;;;;5051727;28;20045;-82
2021/06/18 00:16:47;;;;;;;50.67;45.67;;;19.80;86.00;;;;;;5051838;28;20052;-82
2021/06/18 00:19:12;;;;;;;53.83;48.40;;;19.80;86.30;;;;;;5050847;28;20041;-81
2021/06/18 00:21:38;;;;;;;52.93;47.80;;;19.80;86.50;;;;;;5051553;28;20053;-82
2021/06/18 00:24:04;;;;;;;52.57;47.47;;;19.80;86.60;;;;;;5051283;28;20137;-80
2021/06/18 00:26:29;;;;;;;53.33;48.13;;;19.80;86.80;;;;;;5051096;28;20135;-80
2021/06/18 00:28:55;;;;;;;50.97;45.77;;;19.70;86.90;;;;;;5051756;28;20534;-80
2021/06/18 00:31:21;;;;;;;55.10;49.57;;;19.70;86.90;;;;;;5051311;28;20060;-80
2021/06/18 00:33:47;;;;;;;57.17;51.10;;;19.70;87.00;;;;;;5050808;28;20045;-81
2021/06/18 00:36:12;;;;;;;55.83;50.43;;;19.70;87.00;;;;;;5051177;28;20144;-82
2021/06/18 00:38:38;;;;;;;55.07;49.40;;;19.70;86.80;;;;;;5051477;28;20418;-81
2021/06/18 00:41:04;;;;;;;56.63;50.73;;;19.70;86.80;;;;;;5050631;28;20057;-82
2021/06/18 00:43:30;;;;;;;59.83;53.93;;;19.60;86.90;;;;;;5051855;28;20133;-82
2021/06/18 00:45:56;;;;;;;58.70;52.70;;;19.60;86.90;;;;;;5057193;28;20459;-82
2021/06/18 00:48:23;;;;;;;58.10;52.43;;;19.60;87.00;;;;;;5058011;28;20513;-81
2021/06/18 00:50:49;;;;;;;61.13;55.00;;;19.60;87.10;;;;;;5058021;28;20060;-81
2021/06/18 00:53:15;;;;;;;60.63;54.40;;;19.60;87.10;;;;;;5057059;28;20053;-81
2021/06/18 00:55:41;;;;;;;62.10;56.10;;;19.50;87.10;;;;;;5058137;28;20175;-80
2021/06/18 00:58:08;;;;;;;58.77;52.97;;;19.50;87.30;;;;;;5057936;28;20127;-82
2021/06/18 01:00:34;;;;;;;60.20;54.07;;;19.40;87.50;;;;;;5057315;28;20069;-81
2021/06/18 01:03:00;;;;;;;52.80;47.67;;;19.40;87.60;;;;;;5057625;28;20049;-81
2021/06/18 01:05:26;;;;;;;58.20;52.13;;;19.30;87.60;;;;;;5058116;28;20132;-83
2021/06/18 01:07:57;;;;;;;55.87;50.33;;;19.20;87.90;;;;;;5057104;28;20494;-82
2021/06/18 01:10:46;;;;;;;66.18;59.40;;;19.10;89.30;;;;;;5058121;28;20087;-83
2021/06/18 01:13:45;;;;;;;68.13;61.20;;;19.10;88.50;;;;;;5057645;28;20149;-81
2021/06/18 01:16:35;;;;;;;65.40;58.73;;;19.10;88.80;;;;;;5056727;28;20063;-81
2021/06/18 01:19:21;;;;;;;52.03;46.83;;;19.10;88.80;;;;;;5057702;28;20053;-82
2021/06/18 01:22:02;;;;;;;64.47;57.77;;;19.00;89.00;;;;;;5056611;28;20049;-82
2021/06/18 01:24:39;;;;;;;65.63;58.85;;;19.00;89.00;;;;;;5057821;28;20091;-82
2021/06/18 01:27:10;;;;;;;66.97;59.87;;;19.10;89.00;;;;;;5057858;28;20049;-82
2021/06/18 01:29:40;;;;;;;68.38;61.53;;;19.10;89.00;;;;;;5057247;28;20128;-82
2021/06/18 01:32:10;;;;;;;72.10;65.07;;;19.10;88.80;;;;;;5058008;28;20044;-82
2021/06/18 01:34:38;;;;;;;59.97;53.90;;;19.10;88.90;;;;;;5057704;28;20559;-82
2021/06/18 01:37:10;;;;;;;67.67;60.73;;;19.10;88.90;;;;;;5056579;28;20504;-82
2021/06/18 01:39:38;;;;;;;65.93;59.20;;;19.10;89.00;;;;;;5058143;28;20048;-83
2021/06/18 01:42:06;;;;;;;70.13;63.00;;;19.10;89.10;;;;;;5058559;28;20078;-82
2021/06/18 01:44:33;;;;;;;70.43;63.63;;;19.10;89.00;;;;;;5057464;28;20048;-82
2021/06/18 01:47:01;;;;;;;70.70;63.50;;;19.10;89.00;;;;;;5057490;28;20511;-82
2021/06/18 01:49:28;;;;;;;67.67;60.83;;;19.10;89.00;;;;;;5057220;28;20048;-82
2021/06/18 01:51:56;;;;;;;67.80;60.67;;;19.10;89.00;;;;;;5057477;28;20045;-83
2021/06/18 01:54:26;;;;;;;62.57;56.00;;;19.10;89.00;;;;;;5057437;28;20049;-83
2021/06/18 01:56:53;;;;;;;68.20;61.30;;;19.10;89.00;;;;;;5053081;28;20053;-83
2021/06/18 01:59:22;;;;;;;59.23;53.47;;;19.10;89.10;;;;;;5054133;28;20060;-85
2021/06/18 02:01:50;;;;;;;71.03;63.93;;;19.00;89.30;;;;;;5054286;28;20386;-84
2021/06/18 02:04:16;;;;;;;70.63;63.53;;;19.00;89.60;;;;;;5053177;28;20052;-84
2021/06/18 02:06:44;;;;;;;71.87;64.57;;;19.00;90.00;;;;;;5054417;28;20055;-85
2021/06/18 02:09:14;;;;;;;69.93;62.77;;;19.00;90.50;;;;;;5053940;28;20069;-83
2021/06/18 02:11:41;;;;;;;69.53;62.17;;;19.00;90.10;;;;;;5053863;28;20072;-83
2021/06/18 02:14:15;;;;;;;73.07;65.43;;;19.00;90.00;;;;;;5053847;28;20512;-84
2021/06/18 02:16:45;;;;;;;70.97;63.60;;;19.00;90.00;;;;;;5053839;28;20048;-84
2021/06/18 02:19:14;;;;;;;68.90;61.43;;;19.00;90.00;;;;;;5052954;28;20569;-84
2021/06/18 02:21:40;;;;;;;70.83;63.60;;;19.00;90.10;;;;;;5054104;28;20136;-85
2021/06/18 02:24:07;;;;;;;70.47;63.17;;;19.00;90.20;;;;;;5053688;28;20056;-85
2021/06/18 02:26:33;;;;;;;73.70;66.10;;;18.90;90.20;;;;;;5053394;28;20121;-85
2021/06/18 02:28:59;;;;;;;68.37;61.30;;;18.90;90.60;;;;;;5053471;28;20115;-84
2021/06/18 02:31:27;;;;;;;72.80;65.27;;;19.00;90.70;;;;;;5052980;28;20728;-83
2021/06/18 02:33:53;;;;;;;70.40;63.33;;;19.00;90.30;;;;;;5053508;28;20052;-82
2021/06/18 02:36:20;;;;;;;78.13;69.83;;;19.00;90.30;;;;;;5053338;28;20111;-84
2021/06/18 02:38:47;;;;;;;75.67;68.10;;;19.00;90.20;;;;;;5053045;28;20041;-84
2021/06/18 02:41:14;;;;;;;77.00;69.10;;;19.00;90.20;;;;;;5053392;28;20045;-84
2021/06/18 02:43:39;;;;;;;79.40;71.23;;;19.00;90.40;;;;;;5053609;28;20048;-84
2021/06/18 02:46:05;;;;;;;66.40;59.83;;;18.90;90.30;;;;;;5052274;28;20044;-83
2021/06/18 02:48:48;;;;;;;73.97;65.97;;;18.90;90.40;;;;;;5053541;28;20041;-84
2021/06/18 02:51:30;;;;;;;75.27;67.07;;;18.90;90.40;;;;;;5053005;28;20053;-83
2021/06/18 02:54:30;;;;;;;72.90;65.40;;;18.90;90.40;;;;;;5052818;28;20049;-84
2021/06/18 02:57:03;;;;;;;71.43;63.90;;;18.90;90.80;;;;;;5047116;28;20049;-83
2021/06/18 02:59:28;;;;;;;70.57;63.10;;;18.90;90.40;;;;;;5052697;28;20462;-84
2021/06/18 03:01:56;;;;;;;75.33;67.73;;;18.90;90.40;;;;;;5052377;28;20060;-83
2021/06/18 03:04:25;;;;;;;71.63;64.33;;;18.90;90.40;;;;;;5053228;28;20041;-84
2021/06/18 03:06:54;;;;;;;79.07;71.43;;;18.90;90.40;;;;;;5051857;28;20053;-84
2021/06/18 03:09:29;;;;;;;76.23;68.20;;;18.90;90.40;;;;;;5052642;28;20053;-84
2021/06/18 03:11:56;;;;;;;63.97;57.57;;;18.90;90.50;;;;;;5052748;28;20486;-84
2021/06/18 03:14:27;;;;;;;78.03;70.17;;;18.80;90.50;;;;;;5051978;28;20049;-84
2021/06/18 03:16:58;;;;;;;80.63;72.27;;;18.80;90.70;;;;;;5052587;28;20144;-85
2021/06/18 03:19:37;;;;;;;80.03;72.00;;;18.70;90.70;;;;;;5052563;28;20052;-84
2021/06/18 03:22:06;;;;;;;82.43;74.03;;;18.70;90.80;;;;;;5051695;28;20048;-84
2021/06/18 03:24:33;;;;;;;77.53;69.60;;;18.60;90.90;;;;;;5052823;28;20133;-85
2021/06/18 03:27:00;;;;;;;78.43;70.43;;;18.60;91.10;;;;;;5052347;28;20049;-84
2021/06/18 03:29:27;;;;;;;80.30;72.30;;;18.60;91.10;;;;;;5051814;28;20049;-85
2021/06/18 03:31:55;;;;;;;79.87;71.80;;;18.60;91.10;;;;;;5052554;28;20045;-86
2021/06/18 03:34:27;;;;;;;75.87;68.23;;;18.60;91.20;;;;;;5052011;28;20057;-84
2021/06/18 03:36:55;;;;;;;77.67;69.70;;;18.50;91.30;;;;;;5051863;28;20049;-85
2021/06/18 03:39:22;;;;;;;76.57;68.73;;;18.50;91.40;;;;;;5052419;28;20049;-84
2021/06/18 03:41:48;;;;;;;73.97;66.60;;;18.60;91.50;;;;;;5051319;28;20525;-85
2021/06/18 03:44:19;;;;;;;76.00;68.17;;;18.60;91.50;;;;;;5051694;28;20071;-85
2021/06/18 03:46:46;;;;;;;73.68;65.82;;;18.70;91.50;;;;;;5052128;28;20069;-84
2021/06/18 03:49:12;;;;;;;73.50;66.10;;;18.70;91.40;;;;;;5051337;28;20048;-86
2021/06/18 03:51:38;;;;;;;70.70;63.93;;;18.80;91.40;;;;;;5052007;28;20060;-85
2021/06/18 03:54:05;;;;;;;73.67;66.23;;;18.80;91.40;;;;;;5051691;28;20425;-85
2021/06/18 03:56:31;;;;;;;74.63;66.97;;;18.90;91.40;;;;;;5051378;28;20436;-86
2021/06/18 03:58:58;;;;;;;72.33;65.00;;;18.90;91.40;;;;;;5051730;28;20417;-86
2021/06/18 04:01:27;;;;;;;70.27;63.53;;;18.90;91.50;;;;;;5051812;28;20053;-86
2021/06/18 04:03:57;;;;;;;69.20;62.30;;;19.00;91.60;;;;;;5051407;28;20067;-86
2021/06/18 04:06:24;;;;;;;68.23;61.33;;;19.00;91.60;;;;;;5051700;28;20466;-86
2021/06/18 04:08:51;;;;;;;64.67;58.07;;;19.00;91.70;;;;;;5051985;28;20382;-87
2021/06/18 04:11:16;;;;;;;61.23;55.20;;;19.10;91.70;;;;;;5051771;28;20048;-86
2021/06/18 04:13:43;;;;;;;56.83;51.27;;;19.20;91.70;;;;;;5052652;28;20045;-85
2021/06/18 04:16:10;;;;;;;55.43;49.90;;;19.30;91.60;;;;;;5051677;28;20187;-86
2021/06/18 04:18:42;;;;;;;53.63;48.23;;;19.40;91.50;;;;;;5050778;28;20053;-87
2021/06/18 04:21:12;;;;;;;53.33;48.13;;;19.40;91.40;;;;;;5051903;28;20501;-86
2021/06/18 04:23:38;;;;;;;54.33;49.13;;;19.50;91.30;;;;;;5052063;28;20130;-86
2021/06/18 04:26:04;;;;;;;51.27;46.17;;;19.50;91.20;;;;;;5051146;28;20772;-86
2021/06/18 04:28:30;;;;;;;48.77;44.07;;;19.60;91.20;;;;;;5053555;28;20052;-87
2021/06/18 04:30:57;;;;;;;50.60;45.67;;;19.60;91.10;;;;;;5052792;28;20053;-86
2021/06/18 04:33:22;;;;;;;48.33;43.93;;;19.60;91.10;;;;;;5052338;28;20068;-86
2021/06/18 04:35:48;;;;;;;49.90;45.37;;;19.70;91.00;;;;;;5052046;28;20463;-86
2021/06/18 04:38:14;;;;;;;50.73;45.77;;;19.70;90.90;;;;;;5050848;28;20114;-86
2021/06/18 04:40:40;;;;;;;49.53;44.97;;;19.70;90.90;;;;;;5052359;28;20053;-86
2021/06/18 04:43:06;;;;;;;49.37;44.70;;;19.70;90.90;;;;;;5051576;28;20140;-86
2021/06/18 04:45:32;;;;;;;48.93;44.07;;;19.80;90.90;;;;;;5051091;28;20071;-86
2021/06/18 04:47:59;;;;;;;47.60;43.23;;;19.80;90.90;;;;;;5051403;28;20056;-83
2021/06/18 04:50:25;;;;;;;46.77;42.17;;;19.80;90.80;;;;;;5052396;28;20135;-86
2021/06/18 04:52:51;;;;;;;44.77;40.37;;;19.90;90.80;;;;;;5053403;28;20045;-88
2021/06/18 04:55:18;;;;;;;46.73;42.33;;;19.90;90.70;;;;;;5052265;28;20407;-87
2021/06/18 04:57:45;;;;;;;44.63;40.43;;;19.90;90.70;;;;;;5052066;28;20057;-87
2021/06/18 05:00:12;;;;;;;46.43;42.07;;;19.90;90.70;;;;;;5052332;28;20069;-87
2021/06/18 05:02:38;;;;;;;45.00;40.90;;;19.90;90.70;;;;;;5034183;28;20140;-86
2021/06/18 05:05:04;;;;;;;47.00;42.60;;;19.90;90.70;;;;;;5051084;28;20201;-86
2021/06/18 05:07:30;;;;;;;46.20;41.50;;;19.90;90.70;;;;;;5050783;28;20462;-87
2021/06/18 05:09:56;;;;;;;46.70;42.43;;;19.90;90.60;;;;;;5051489;28;20195;-88
2021/06/18 05:12:22;;;;;;;45.27;40.97;;;19.90;90.60;;;;;;5051554;28;20105;-86
2021/06/18 05:14:48;;;;;;;44.33;40.03;;;20.00;90.60;;;;;;5054627;28;20049;-86
2021/06/18 05:17:14;;;;;;;47.93;42.90;;;20.00;90.50;;;;;;5055680;28;20045;-88
2021/06/18 05:19:39;;;;;;;48.67;43.97;;;20.00;90.50;;;;;;5053290;28;20041;-88
2021/06/18 05:22:05;;;;;;;48.50;43.73;;;20.00;90.50;;;;;;5054533;28;20049;-88
2021/06/18 05:24:31;;;;;;;49.97;45.27;;;20.00;90.50;;;;;;5052957;28;20106;-84
2021/06/18 05:26:56;;;;;;;49.00;44.40;;;20.00;90.40;;;;;;5053335;28;20055;-86
2021/06/18 05:29:22;;;;;;;49.73;44.97;;;19.90;90.40;;;;;;5052403;28;20052;-87
2021/06/18 05:31:48;;;;;;;48.47;44.03;;;19.90;90.50;;;;;;5055698;28;20049;-85
2021/06/18 05:34:14;;;;;;;49.07;44.27;;;19.80;90.60;;;;;;5056561;28;20045;-88
2021/06/18 05:36:44;;;;;;;48.23;43.53;;;19.80;90.60;;;;;;5055996;28;20049;-88
2021/06/18 05:39:15;;;;;;;51.50;46.40;;;19.80;90.50;;;;;;5057000;28;20045;-87
2021/06/18 05:41:42;;;;;;;48.33;43.83;;;19.90;90.40;;;;;;5056117;28;20136;-85
2021/06/18 05:44:08;;;;;;;49.57;44.63;;;19.80;90.40;;;;;;5056857;28;20048;-86
2021/06/18 05:46:34;;;;;;;49.00;44.10;;;19.80;90.40;;;;;;5058443;28;20110;-85
2021/06/18 05:49:00;;;;;;;48.83;44.13;;;19.90;90.30;;;;;;5064500;28;20455;-83
2021/06/18 05:51:26;;;;;;;46.93;42.17;;;20.00;90.20;;;;;;5059841;28;20119;-84
2021/06/18 05:53:53;;;;;;;46.47;42.13;;;20.00;90.10;;;;;;5056229;28;20165;-86
2021/06/18 05:56:19;;;;;;;43.77;39.80;;;20.00;90.20;;;;;;5057178;28;20041;-86
2021/06/18 05:58:45;;;;;;;46.47;41.93;;;20.00;90.10;;;;;;5061761;28;20068;-87
2021/06/18 06:01:11;;;;;;;47.83;43.23;;;20.00;90.00;;;;;;5060829;28;20049;-85
2021/06/18 06:03:37;;;;;;;49.30;44.23;;;20.00;90.00;;;;;;5057267;28;20098;-83
2021/06/18 06:06:03;;;;;;;50.37;45.47;;;20.00;90.00;;;;;;5057496;28;20048;-86
2021/06/18 06:08:31;;;;;;;46.97;42.57;;;19.90;90.10;;;;;;5059352;28;20066;-85
2021/06/18 06:10:57;;;;;;;43.50;39.30;;;20.00;90.10;;;;;;5057694;28;20044;-84
2021/06/18 06:13:24;;;;;;;45.43;41.27;;;20.10;90.00;;;;;;5058142;28;20127;-86
2021/06/18 06:15:50;;;;;;;42.67;38.80;;;20.10;89.60;;;;;;5058700;28;20049;-87
2021/06/18 06:18:16;;;;;;;45.53;41.43;;;20.20;89.60;;;;;;5058107;28;20108;-88
2021/06/18 06:20:42;;;;;;;44.90;40.83;;;20.20;89.60;;;;;;5058465;28;20040;-86
2021/06/18 06:23:11;;;;;;;45.90;41.77;;;20.30;89.60;;;;;;5057065;28;20059;-86
2021/06/18 06:25:38;;;;;;;45.20;41.13;;;20.30;89.40;;;;;;5056657;28;20053;-85
2021/06/18 06:28:05;;;;;;;46.10;41.70;;;20.30;89.50;;;;;;5054015;28;20069;-87
2021/06/18 06:30:31;;;;;;;43.70;39.90;;;20.30;89.60;;;;;;5054482;28;20461;-86
2021/06/18 06:32:56;;;;;;;43.73;39.80;;;20.30;89.50;;;;;;5053609;28;20064;-85
2021/06/18 06:35:24;;;;;;;47.17;42.80;;;20.40;89.40;;;;;;5054010;28;20049;-87
2021/06/18 06:37:50;;;;;;;45.17;41.23;;;20.40;89.30;;;;;;5057886;28;20049;-85
2021/06/18 06:40:17;;;;;;;46.43;42.03;;;20.50;89.30;;;;;;5056901;28;20505;-87
2021/06/18 06:42:42;;;;;;;46.93;42.30;;;20.50;89.10;;;;;;5055559;28;20110;-87
2021/06/18 06:45:09;;;;;;;46.17;41.80;;;20.50;89.10;;;;;;5058588;28;20110;-87
2021/06/18 06:47:35;;;;;;;47.87;43.47;;;20.50;89.00;;;;;;5054575;28;20418;-85
2021/06/18 06:50:00;;;;;;;48.90;44.17;;;20.50;89.10;;;;;;5054413;28;20045;-86
2021/06/18 06:52:26;;;;;;;47.87;43.13;;;20.60;88.90;;;;;;5053883;28;20132;-85
2021/06/18 06:54:52;;;;;;;48.00;43.30;;;20.60;88.90;;;;;;5057222;28;20485;-86
2021/06/18 06:57:19;;;;;;;45.37;41.03;;;20.60;89.00;;;;;;5054234;28;20099;-85
2021/06/18 06:59:45;;;;;;;45.13;40.70;;;20.50;88.90;;;;;;5052402;28;20413;-87
2021/06/18 07:02:11;;;;;;;47.40;42.83;;;20.50;89.00;;;;;;5052472;28;20049;-85
2021/06/18 07:04:36;;;;;;;42.30;38.27;;;20.50;89.10;;;;;;5037244;28;20037;-84
2021/06/18 07:07:02;;;;;;;40.93;37.33;;;20.60;89.10;;;;;;5052180;28;20064;-85
2021/06/18 07:09:28;;;;;;;39.80;35.67;;;20.70;89.10;;;;;;5052544;28;20472;-83
2021/06/18 07:11:53;;;;;;;36.70;33.50;;;20.80;88.70;;;;;;5053068;28;20048;-84
2021/06/18 07:14:19;;;;;;;38.27;34.70;;;20.80;88.10;;;;;;5049511;28;20394;-84
2021/06/18 07:16:45;;;;;;;35.17;32.07;;;20.80;88.10;;;;;;5052791;28;20049;-84
2021/06/18 07:19:10;;;;;;;35.30;32.10;;;20.80;88.10;;;;;;5052803;28;20559;-85
2021/06/18 07:21:36;;;;;;;37.20;33.87;;;20.70;88.20;;;;;;5051378;28;20102;-83
2021/06/18 07:24:02;;;;;;;35.87;32.60;;;20.80;88.20;;;;;;5051937;28;20441;-84
2021/06/18 07:26:28;;;;;;;37.60;34.17;;;20.80;88.10;;;;;;5052483;28;20129;-84
2021/06/18 07:28:54;;;;;;;36.10;32.80;;;20.90;87.80;;;;;;5052399;28;20057;-84
2021/06/18 07:31:20;;;;;;;37.27;33.50;;;21.00;87.70;;;;;;5051273;28;20049;-83
2021/06/18 07:33:46;;;;;;;34.93;31.93;;;21.00;87.30;;;;;;5051852;28;20086;-83
2021/06/18 07:36:11;;;;;;;32.60;29.60;;;21.00;87.40;;;;;;5051040;28;20061;-82
2021/06/18 07:38:37;;;;;;;30.73;28.13;;;21.10;87.40;;;;;;5051645;28;20199;-82
2021/06/18 07:41:04;;;;;;;28.93;26.37;;;21.20;87.10;;;;;;5050560;28;20559;-83
2021/06/18 07:43:29;;;;;;;28.90;26.27;;;21.40;86.80;;;;;;5051447;28;20494;-82
2021/06/18 07:45:55;;;;;;;27.87;25.20;;;21.50;86.00;;;;;;5051143;28;20053;-83
2021/06/18 07:48:21;;;;;;;24.70;22.40;;;21.50;85.50;;;;;;5051049;28;20486;-80
2021/06/18 07:50:46;;;;;;;22.03;20.10;;;21.50;85.20;;;;;;5051756;28;20045;-80
2021/06/18 07:53:12;;;;;;;21.00;19.30;;;21.50;85.10;;;;;;5052075;28;20067;-82
2021/06/18 07:55:38;;;;;;;21.63;19.53;;;21.50;85.00;;;;;;5050634;28;20148;-84
2021/06/18 07:58:03;;;;;;;19.63;17.93;;;21.50;85.00;;;;;;5051705;28;20383;-83
2021/06/18 08:00:29;;;;;;;18.77;17.07;;;21.60;84.90;;;;;;5051851;28;20072;-83
2021/06/18 08:02:55;;;;;;;21.67;19.63;;;21.70;84.80;;;;;;5051461;28;20094;-82
2021/06/18 08:05:21;;;;;;;19.87;18.17;;;21.70;84.30;;;;;;5051313;28;20052;-82
2021/06/18 08:07:47;;;;;;;17.37;15.97;;;21.80;84.30;;;;;;5051742;28;20040;-83
2021/06/18 08:10:15;;;;;;;17.97;16.47;;;21.80;84.20;;;;;;5050971;28;20486;-82
2021/06/18 08:12:42;;;;;;;19.40;17.80;;;21.90;83.90;;;;;;5054867;28;20041;-83
2021/06/18 08:15:08;;;;;;;19.23;17.53;;;21.90;83.40;;;;;;5048432;28;20060;-83
2021/06/18 08:17:34;;;;;;;17.77;16.23;;;22.00;83.30;;;;;;5052598;28;20041;-81
2021/06/18 08:20:01;;;;;;;19.53;17.73;;;22.00;83.30;;;;;;5055168;28;20186;-82
2021/06/18 08:22:27;;;;;;;21.40;17.67;;;22.00;83.40;;;;;;5052965;28;20036;-83
2021/06/18 08:24:52;;;;;;;19.98;18.10;;;22.10;83.30;;;;;;5053529;28;20592;-83
2021/06/18 08:27:18;;;;;;;19.48;17.77;;;22.20;83.10;;;;;;5054675;28;20084;-84
2021/06/18 08:29:43;;;;;;;20.77;18.97;;;22.10;82.70;;;;;;5056767;28;20108;-84
2021/06/18 08:32:09;;;;;;;21.10;19.00;;;22.20;82.50;;;;;;5056033;28;20546;-83
2021/06/18 08:34:35;;;;;;;23.55;21.75;;;22.20;82.60;;;;;;5053036;28;20045;-84
2021/06/18 08:37:01;;;;;;;24.40;22.20;;;22.30;82.60;;;;;;5052496;28;20083;-84
2021/06/18 08:39:26;;;;;;;26.33;24.05;;;22.30;82.20;;;;;;5051443;28;20504;-86
2021/06/18 08:41:56;;;;;;;28.38;25.50;;;22.30;82.20;;;;;;5051600;28;20122;-80
2021/06/18 08:44:21;;;;;;;22.67;20.38;;;22.30;82.20;;;;;;5050539;28;20045;-82
2021/06/18 08:46:47;;;;;;;20.27;18.33;;;22.40;82.30;;;;;;5052290;28;20136;-82
2021/06/18 08:49:13;;;;;;;17.98;16.38;;;22.40;81.80;;;;;;5051886;28;20067;-85
2021/06/18 08:51:39;;;;;;;19.10;17.40;;;22.50;81.50;;;;;;5052011;28;20500;-86
2021/06/18 08:54:05;;;;;;;18.88;17.27;;;22.50;81.50;;;;;;5052420;28;20045;-78
2021/06/18 08:56:31;;;;;;;18.88;17.27;;;22.60;81.50;;;;;;5053090;28;20045;-84
2021/06/18 08:58:57;;;;;;;17.65;16.00;;;22.70;80.90;;;;;;5052568;28;20053;-84
2021/06/18 09:01:22;;;;;;;18.42;16.73;;;22.70;80.50;;;;;;5052129;28;20048;-82
2021/06/18 09:03:49;;;;;;;18.38;16.85;;;22.80;80.50;;;;;;5053139;28;20095;-87
2021/06/18 09:06:21;;;;;;;18.55;16.77;;;22.80;80.60;;;;;;5058124;28;20056;-82
2021/06/18 09:09:07;;;;;;;18.55;16.73;;;22.90;80.80;;;;;;5057979;28;20045;-81
2021/06/18 09:11:40;;;;;;;19.17;17.38;;;23.10;80.60;;;;;;5057891;28;20052;-87
2021/06/18 09:14:17;;;;;;;17.42;15.77;;;23.40;80.60;;;;;;5057987;28;20045;-87
2021/06/18 09:17:00;;;;;;;16.30;14.70;;;23.60;80.50;;;;;;5055884;28;20053;-86
2021/06/18 09:19:26;;;;;;;15.20;13.85;;;23.90;80.40;;;;;;5055937;28;20445;-86
2021/06/18 09:22:07;;;;;;;13.65;12.45;;;24.20;79.90;;;;;;5058559;28;20053;-86
2021/06/18 09:24:37;;;;;;;14.05;12.75;;;24.30;78.10;;;;;;5057291;28;20072;-86
2021/06/18 09:27:03;;;;;;;15.10;13.80;;;24.30;77.80;;;;;;5057745;28;20052;-88
2021/06/18 09:29:30;;;;;;;15.05;13.73;;;24.30;77.30;;;;;;5057421;28;20106;-85
2021/06/18 09:32:08;;;;;;;15.27;13.77;;;24.30;76.20;;;;;;5056002;28;20143;-85
2021/06/18 09:35:02;;;;;;;14.48;12.98;;;24.30;76.00;;;;;;5057124;28;20071;-84
2021/06/18 09:37:34;;;;;;;14.55;13.15;;;24.30;76.20;;;;;;5055807;28;20048;-85
2021/06/18 09:40:17;;;;;;;12.57;11.48;;;24.20;76.40;;;;;;5055573;28;20159;-86
2021/06/18 09:43:05;;;;;;;11.98;10.65;;;24.20;76.00;;;;;;5055403;28;20452;-83
2021/06/18 09:45:36;;;;;;;11.63;10.05;;;24.20;76.00;;;;;;5056729;28;20102;-86
2021/06/18 09:48:13;;;;;;;10.70;9.63;;;24.20;75.90;;;;;;5056667;28;20131;-85
2021/06/18 09:50:41;;;;;;;10.52;9.50;;;24.10;75.40;;;;;;5055997;28;20520;-84
2021/06/18 09:53:10;;;;;;;10.13;9.13;;;24.20;75.60;;;;;;5057068;28;20165;-86
2021/06/18 09:55:37;;;;;;;8.73;8.00;;;24.30;75.40;;;;;;5056359;28;20140;-86
2021/06/18 09:58:03;;;;;;;8.77;8.02;;;24.20;75.10;;;;;;5059133;28;20041;-86
2021/06/18 10:00:29;;;;;;;9.00;7.78;;;24.30;74.40;;;;;;5070392;28;20055;-84
2021/06/18 10:02:55;;;;;;;8.77;7.88;;;24.40;74.30;;;;;;5057573;28;20097;-83
2021/06/18 10:05:26;;;;;;;8.27;7.57;;;24.40;74.40;;;;;;5056025;28;20049;-84
2021/06/18 10:07:54;;;;;;;8.48;7.60;;;24.50;73.90;;;;;;5054847;28;20052;-85
2021/06/18 10:10:22;;;;;;;8.20;6.88;;;24.50;74.00;;;;;;5054371;28;20072;-84
2021/06/18 10:12:49;;;;;;;7.05;6.32;;;24.50;73.50;;;;;;5055084;28;20108;-84
2021/06/18 10:15:17;;;;;;;6.97;6.20;;;24.60;74.00;;;;;;5054999;28;20095;-84
2021/06/18 10:17:45;;;;;;;6.70;5.40;;;24.70;73.40;;;;;;5055195;28;20060;-84
2021/06/18 10:20:16;;;;;;;6.45;5.80;;;24.80;72.10;;;;;;5055605;28;20049;-84
2021/06/18 10:23:01;;;;;;;8.30;6.25;;;24.90;71.30;;;;;;5054580;28;20052;-83
2021/06/18 10:25:48;;;;;;;7.47;5.40;;;25.10;71.00;;;;;;5054652;28;20124;-83
2021/06/18 10:28:24;;;;;;;6.85;5.22;;;25.30;70.30;;;;;;5054521;28;20049;-83
2021/06/18 10:30:52;;;;;;;8.38;6.28;;;25.50;69.20;;;;;;5053353;28;20140;-83
2021/06/18 10:33:27;;;;;;;8.35;5.90;;;25.60;68.40;;;;;;5054710;28;20064;-83
2021/06/18 10:35:59;;;;;;;8.68;6.57;;;25.60;68.20;;;;;;5056240;28;20132;-83
2021/06/18 10:38:47;;;;;;;6.75;5.60;;;25.60;68.20;;;;;;5052958;28;20049;-82
2021/06/18 10:41:13;;;;;;;8.00;6.30;;;25.50;68.70;;;;;;5052871;28;20069;-83
2021/06/18 10:43:45;;;;;;;8.00;7.30;;;25.50;69.50;;;;;;5053729;28;20057;-83
2021/06/18 10:46:14;;;;;;;8.18;6.43;;;25.50;69.70;;;;;;5053887;28;20163;-82
2021/06/18 10:48:55;;;;;;;8.10;6.63;;;25.50;69.90;;;;;;5055315;28;20171;-82
2021/06/18 10:51:27;;;;;;;;;;;25.60;68.70;;;;;;5053234;28;20051;-83
2021/06/18 10:54:03;;;;;;;8.60;6.10;;;25.60;69.00;;;;;;5054208;28;19928;-83
2021/06/18 10:56:44;;;;;;;7.80;6.53;;;25.60;69.20;;;;;;5053606;28;20048;-82
2021/06/18 10:59:17;;;;;;;8.63;6.10;;;25.60;68.90;;;;;;5053191;28;20179;-83
2021/06/18 11:01:44;;;;;;;5.20;4.63;;;25.60;69.10;;;;;;5054915;28;20412;-82
2021/06/18 11:04:10;;;;;;;7.05;5.40;;;25.70;68.60;;;;;;5054922;28;20045;-84
2021/06/18 11:06:45;;;;;;;6.03;5.40;;;25.70;67.80;;;;;;5053139;28;20132;-83
2021/06/18 11:09:12;;;;;;;6.93;5.57;;;25.70;67.70;;;;;;5054356;28;20516;-83
2021/06/18 11:11:39;;;;;;;15.88;5.80;;;25.70;68.00;;;;;;5035300;28;20474;-83
2021/06/18 11:14:06;;;;;;;6.30;5.70;;;25.70;68.00;;;;;;5052231;28;20099;-83
2021/06/18 11:16:36;;;;;;;6.60;5.90;;;25.70;68.00;;;;;;5053162;28;20045;-82
2021/06/18 11:19:22;;;;;;;7.18;6.13;;;25.70;68.20;;;;;;5052702;28;20052;-81
2021/06/18 11:21:48;;;;;;;10.30;7.82;;;25.70;68.70;;;;;;5053229;28;20045;-83
2021/06/18 11:24:32;;;;;;;7.60;6.18;;;25.60;68.90;;;;;;5052616;28;20087;-82
2021/06/18 11:27:24;;;;;;;7.25;6.55;;;25.70;69.10;;;;;;5052413;28;20334;-83
2021/06/18 11:30:28;;;;;;;6.82;6.10;;;25.70;69.50;;;;;;5053444;28;20084;-83
2021/06/18 11:32:55;;;;;;;8.15;7.45;;;25.70;69.80;;;;;;5057184;28;20059;-86
2021/06/18 11:35:33;;;;;;;7.45;6.07;;;25.80;69.30;;;;;;5059091;28;20512;-84
2021/06/18 11:38:17;;;;;;;8.02;7.18;;;26.00;69.10;;;;;;5056528;28;20049;-82
2021/06/18 11:40:44;;;;;;;7.60;6.47;;;26.20;68.60;;;;;;5059565;28;20056;-82
2021/06/18 11:43:11;;;;;;;8.00;6.75;;;26.30;68.30;;;;;;5056171;28;20045;-85
2021/06/18 11:45:41;;;;;;;8.38;6.25;;;26.30;67.70;;;;;;5056826;28;20045;-83
2021/06/18 11:48:14;;;;;;;9.50;7.22;;;26.40;67.50;;;;;;5056243;28;20114;-83
2021/06/18 11:50:40;;;;;;;8.35;7.40;;;26.40;68.30;;;;;;5057811;28;20049;-83
2021/06/18 11:53:06;;;;;;;7.85;7.15;;;26.40;68.70;;;;;;5057317;28;20056;-83
2021/06/18 11:55:31;;;;;;;7.10;6.38;;;26.50;68.70;;;;;;5056308;28;20045;-83
2021/06/18 11:57:57;;;;;;;7.10;6.45;;;26.60;68.00;;;;;;5056874;28;20049;-83
2021/06/18 12:00:34;;;;;;;6.60;5.38;;;26.70;67.40;;;;;;5055309;28;20075;-84
2021/06/18 12:03:00;;;;;;;7.50;6.90;;;26.70;67.30;;;;;;5055539;28;20418;-84
2021/06/18 12:05:31;;;;;;;8.70;7.60;;;26.70;67.10;;;;;;5055665;28;20072;-82
2021/06/18 12:07:57;;;;;;;8.13;7.20;;;26.70;66.70;;;;;;5055525;28;20069;-83
2021/06/18 12:10:26;;;;;;;10.57;9.38;;;26.80;67.40;;;;;;5051298;28;20118;-80
2021/06/18 12:12:54;;;;;;;8.88;8.07;;;26.90;67.20;;;;;;5052532;28;20064;-82
2021/06/18 12:15:31;;;;;;;9.77;8.77;;;26.80;67.30;;;;;;5051915;28;20392;-83
2021/06/18 12:18:01;;;;;;;9.38;8.52;;;26.90;67.60;;;;;;5053017;28;20124;-82
2021/06/18 12:20:42;;;;;;;10.98;9.90;;;26.90;67.80;;;;;;5053403;28;20041;-82
2021/06/18 12:23:13;;;;;;;11.10;9.32;;;27.00;67.20;;;;;;5050742;28;20080;-82
2021/06/18 12:25:39;;;;;;;10.63;9.63;;;27.10;67.20;;;;;;5053036;28;20107;-83
2021/06/18 12:28:07;;;;;;;9.73;8.80;;;27.20;67.00;;;;;;5051973;28;20052;-81
2021/06/18 12:30:37;;;;;;;11.15;10.15;;;27.30;66.60;;;;;;5051572;28;20044;-83
2021/06/18 12:33:05;;;;;;;9.77;8.95;;;27.30;66.00;;;;;;5051223;28;20473;-81
2021/06/18 12:35:36;;;;;;;19.77;10.85;;;27.40;65.90;;;;;;5053007;28;20059;-84
2021/06/18 12:38:04;;;;;;;12.35;11.32;;;27.40;65.80;;;;;;5051167;28;20513;-81
2021/06/18 12:40:31;;;;;;;11.32;10.35;;;27.50;65.70;;;;;;5050879;28;20045;-84